Morovis, Puerto Rico
Current Conditions -  °F | °C
As of 4:50 AM on Monday 22 Dec 2014 (Local Time) from TJPS Reporting Station
Clear Clear  
Wind Chill: 64°   Ceiling: Unl
Heat Index: 64°   Visibility: 8mi
Dew Point: 61°   Wind: 0mph
Humidity: 88%   Direction: NA
Pressure: 30"   Gusts: NA
Location:  18.32°N, 66.4°W
Report Text: TJPS 220850Z 00000KT 8SM SKC 18/16 A3000
Loading
Personal Weather Stations






























Interactive Weather Map New forecast layout! Learn more

10-Day Weather Forecast

Advertisements
Track Severe Weather on mobile